Mogadishu, Somalia
Current Conditions -  °F | °C
As of 3:55 AM on Saturday 20 Dec 2014 (Local Time) from KQVF Reporting Station
Few Clouds Few Clouds  
Wind Chill: 79°   Ceiling: Unl
Heat Index: 83°   Visibility: 6mi
Dew Point: 73°   Wind: 2mph
Humidity: 79%   Direction: 110°ESE
Pressure: 29.91"   Gusts: NA
Location:  2.05°N, 45.33°E
Report Text: KQVF 200055Z AUTO 11002KT 9999 FEW020 26/23 A2991 RMK AO2 SLP127 T02630225
Loading
Personal Weather Stations






























Interactive Weather Map New forecast layout! Learn more

10-Day Weather Forecast

Advertisements
Track Severe Weather on mobile